Papere Vagabonde

Aviosuperficie Caposile LIKI

Pista 04


Pista 22

Le immagini vengono aggiornate ogni minuto
Cliccare sull'immagine per l'ingrandimento.

METAR LIPZ

LIPZ 270250Z 04009KT CAVOK 21/20 Q1014 NOSIG

TAF LIPZ 262300Z 2700/2806 03008KT 9999 FEW040
  BECMG 2709/2711 13010KT
  BECMG 2719/2721 03007KT


      

Alba: 05:22
Tramonto: 21:03

LOW LEVEL SIGWX CHART

ALL WEATHER DATA